Time;durP1;ratioP1;P1;durP2;ratioP2;P2;SDS_P1;SDS_P2;PMS_P1;PMS_P2;Temp;Humidity;BMP_temperature;BMP_pressure;BME280_temperature;BME280_humidity;BME280_pressure;Samples;Min_cycle;Max_cycle;Signal;HPM_P1;HPM_P2
2021/09/01 00:01:58;;;;;;;6.32;3.15;;;;;;;15.21;76.48;102865.56;4954883;28;20407;-57
2021/09/01 00:04:27;;;;;;;2.80;2.10;;;;;;;15.22;76.91;102867.19;4954693;28;20051;-56
2021/09/01 00:06:53;;;;;;;4.53;1.83;;;;;;;15.22;77.02;102867.19;4954811;28;20059;-55
2021/09/01 00:09:21;;;;;;;3.60;2.03;;;;;;;15.25;77.11;102869.31;4954844;28;20054;-62
2021/09/01 00:11:48;;;;;;;6.55;1.70;;;;;;;15.25;77.15;102866.53;4953555;28;20441;-54
2021/09/01 00:14:15;;;;;;;8.23;2.33;;;;;;;15.28;77.34;102862.25;4955364;28;20074;-55
2021/09/01 00:16:42;;;;;;;5.00;1.70;;;;;;;15.29;77.26;102866.72;4953312;28;20051;-53
2021/09/01 00:19:10;;;;;;;8.10;2.42;;;;;;;15.31;77.39;102858.00;4954397;28;20786;-57
2021/09/01 00:21:38;;;;;;;8.93;1.73;;;;;;;15.31;77.58;102852.41;4954174;28;20047;-51
2021/09/01 00:24:06;;;;;;;8.20;1.70;;;;;;;15.31;77.68;102858.81;4955262;28;20074;-55
2021/09/01 00:26:34;;;;;;;4.25;1.58;;;;;;;15.29;78.08;102855.53;4955315;28;20047;-53
2021/09/01 00:29:01;;;;;;;6.38;1.75;;;;;;;15.29;77.95;102858.34;4954632;28;20110;-55
2021/09/01 00:31:28;;;;;;;5.88;1.60;;;;;;;15.29;78.12;102860.31;4956978;28;20046;-51
2021/09/01 00:33:55;;;;;;;5.38;1.80;;;;;;;15.30;78.00;102856.38;4953536;28;20485;-51
2021/09/01 00:36:23;;;;;;;3.80;1.55;;;;;;;15.32;77.92;102856.88;4953666;28;20054;-56
2021/09/01 00:38:50;;;;;;;2.67;1.30;;;;;;;15.33;77.97;102858.50;4954856;28;20043;-53
2021/09/01 00:41:27;;;;;;;3.95;1.65;;;;;;;15.32;78.21;102856.88;4954676;28;20043;-54
2021/09/01 00:43:58;;;;;;;6.90;3.13;;;;;;;15.31;78.12;102852.41;4954515;28;20042;-52
2021/09/01 00:46:25;;;;;;;3.97;1.58;;;;;;;15.29;78.09;102858.34;4955068;28;20134;-54
2021/09/01 00:48:53;;;;;;;3.63;1.85;;;;;;;15.29;78.15;102855.53;4954550;28;20145;-56
2021/09/01 00:51:21;;;;;;;5.60;1.80;;;;;;;15.32;78.26;102859.66;4937459;28;20059;-50
2021/09/01 00:53:49;;;;;;;6.40;2.10;;;;;;;15.32;78.14;102868.03;4954067;28;20286;-52
2021/09/01 00:56:17;;;;;;;6.90;2.80;;;;;;;15.32;78.20;102876.41;4952881;28;20057;-51
2021/09/01 00:58:46;;;;;;;3.58;1.98;;;;;;;15.33;78.36;102867.69;4952786;28;20050;-57
2021/09/01 01:01:15;;;;;;;5.40;2.25;;;;;;;15.36;78.31;102864.25;4954534;28;20051;-55
2021/09/01 01:03:51;;;;;;;9.52;3.00;;;;;;;15.36;78.59;102877.38;4955406;28;20448;-52
2021/09/01 01:06:27;;;;;;;5.97;2.05;;;;;;;15.36;78.63;102867.03;4953990;28;20455;-53
2021/09/01 01:08:56;;;;;;;5.10;2.10;;;;;;;15.37;78.70;102862.28;4953213;28;20050;-53
2021/09/01 01:11:23;;;;;;;8.20;2.28;;;;;;;15.36;78.91;102861.44;4952524;28;20519;-53
2021/09/01 01:13:51;;;;;;;9.50;2.10;;;;;;;15.37;78.95;102867.88;4953425;28;20043;-58
2021/09/01 01:16:24;;;;;;;6.43;2.00;;;;;;;15.37;79.14;102865.06;4954241;28;20062;-54
2021/09/01 01:18:52;;;;;;;9.38;2.92;;;;;;;15.37;78.89;102867.88;4954011;28;20054;-57
2021/09/01 01:21:27;;;;;;;8.18;2.47;;;;;;;15.37;79.14;102857.53;4956297;28;20161;-52
2021/09/01 01:23:59;;;;;;;8.25;2.45;;;;;;;15.39;79.06;102865.56;4954745;28;21545;-54
2021/09/01 01:26:27;;;;;;;4.28;2.20;;;;;;;15.41;79.00;102868.88;4952588;28;20485;-53
2021/09/01 01:28:57;;;;;;;8.18;2.28;;;;;;;15.40;79.16;102864.44;4953587;28;20042;-53
2021/09/01 01:31:25;;;;;;;9.63;2.33;;;;;;;15.39;79.35;102854.41;4952309;28;20054;-52
2021/09/01 01:33:52;;;;;;;12.15;3.40;;;;;;;15.36;79.99;102861.44;4935038;28;20046;-61
2021/09/01 01:36:19;;;;;;;11.45;2.28;;;;;;;15.35;79.96;102864.59;4954233;28;20035;-51
2021/09/01 01:38:46;;;;;;;6.63;2.40;;;;;;;15.34;79.90;102857.34;4953474;28;20038;-54
2021/09/01 01:41:13;;;;;;;6.22;2.10;;;;;;;15.34;80.14;102855.38;4953368;28;20094;-51
2021/09/01 01:43:45;;;;;;;11.40;3.45;;;;;;;15.33;80.57;102855.72;4953194;28;20047;-52
2021/09/01 01:46:11;;;;;;;14.63;3.25;;;;;;;15.34;80.46;102858.19;4954602;28;20054;-51
2021/09/01 01:48:39;;;;;;;7.03;2.58;;;;;;;15.35;80.31;102853.44;4954510;28;20035;-51
2021/09/01 01:51:07;;;;;;;6.47;1.90;;;;;;;15.35;80.61;102853.44;4953772;28;20057;-57
2021/09/01 01:53:35;;;;;;;5.50;1.92;;;;;;;15.35;80.83;102853.44;4952348;28;20500;-52
2021/09/01 01:56:01;;;;;;;8.85;2.33;;;;;;;15.34;80.83;102851.75;4950543;28;20528;-55
2021/09/01 01:58:28;;;;;;;6.07;2.20;;;;;;;15.33;80.73;102853.72;4953220;28;20396;-52
2021/09/01 02:00:55;;;;;;;3.70;1.30;;;;;;;15.33;80.83;102856.53;4952800;28;20080;-54
2021/09/01 02:03:22;;;;;;;3.42;1.25;;;;;;;15.34;80.80;102852.59;4952834;28;20054;-52
2021/09/01 02:05:49;;;;;;;8.35;1.65;;;;;;;15.37;80.64;102856.69;4951510;28;20058;-51
2021/09/01 02:08:16;;;;;;;7.97;1.40;;;;;;;15.36;80.95;102858.66;4952902;28;20047;-51
2021/09/01 02:10:43;;;;;;;17.50;2.55;;;;;;;15.37;80.74;102843.56;4951558;28;20065;-53
2021/09/01 02:13:11;;;;;;;5.30;1.20;;;;;;;15.37;80.71;102846.38;4952445;28;20050;-55
2021/09/01 02:15:38;;;;;;;11.48;1.23;;;;;;;15.38;80.66;102847.19;4935407;28;20134;-55
2021/09/01 02:18:05;;;;;;;1.30;0.65;;;;;;;15.38;80.66;102858.34;4953582;28;20139;-55
2021/09/01 02:20:32;;;;;;;4.10;1.38;;;;;;;15.38;80.58;102852.78;4953367;28;20044;-51
2021/09/01 02:22:58;;;;;;;7.60;1.38;;;;;;;15.38;80.55;102858.34;4952602;28;20043;-53
2021/09/01 02:25:27;;;;;;;4.45;1.40;;;;;;;15.38;80.34;102859.16;4953672;28;20055;-57
2021/09/01 02:27:55;;;;;;;3.00;0.73;;;;;;;15.36;80.23;102855.88;4952220;28;20476;-52
2021/09/01 02:30:22;;;;;;;1.42;1.00;;;;;;;15.35;80.32;102856.22;4952149;28;20098;-55
2021/09/01 02:32:49;;;;;;;3.47;1.17;;;;;;;15.34;80.13;102860.97;4952529;28;20221;-53
2021/09/01 02:35:17;;;;;;;6.13;1.05;;;;;;;15.35;80.08;102854.25;4950528;28;20102;-53
2021/09/01 02:37:44;;;;;;;3.13;0.80;;;;;;;15.36;79.94;102855.03;4952133;28;20416;-51
2021/09/01 02:40:11;;;;;;;2.75;1.00;;;;;;;15.35;79.89;102847.84;4953584;28;20061;-54
2021/09/01 02:42:38;;;;;;;4.32;1.10;;;;;;;15.34;79.76;102846.19;4953649;28;20137;-52
2021/09/01 02:45:06;;;;;;;2.53;0.98;;;;;;;15.33;80.02;102847.34;4951260;28;20098;-51
2021/09/01 02:47:34;;;;;;;4.65;1.15;;;;;;;15.32;80.25;102854.06;4952122;28;20061;-59
2021/09/01 02:50:03;;;;;;;4.10;1.35;;;;;;;15.29;80.61;102847.19;4954370;28;20039;-54
2021/09/01 02:52:30;;;;;;;6.82;2.20;;;;;;;15.29;80.28;102854.72;4935610;28;20416;-58
2021/09/01 02:55:00;;;;;;;4.95;1.75;;;;;;;15.27;80.21;102858.66;4952736;28;20654;-55
2021/09/01 02:57:28;;;;;;;5.28;1.95;;;;;;;15.27;80.34;102857.03;4953717;28;20519;-51
2021/09/01 02:59:56;;;;;;;4.38;2.17;;;;;;;15.26;80.16;102861.78;4954829;28;20122;-50
2021/09/01 03:02:24;;;;;;;7.28;2.30;;;;;;;15.25;80.09;102852.56;4951388;28;20062;-49
2021/09/01 03:04:51;;;;;;;8.73;2.75;;;;;;;15.25;80.12;102869.31;4952564;28;20046;-49
2021/09/01 03:07:18;;;;;;;9.65;2.30;;;;;;;15.24;80.24;102856.53;4955359;28;20043;-50
2021/09/01 03:09:45;;;;;;;9.68;2.63;;;;;;;15.25;80.02;102855.38;4955896;28;20054;-56
2021/09/01 03:12:12;;;;;;;3.50;1.75;;;;;;;15.23;80.15;102854.88;4957122;28;20054;-53
2021/09/01 03:14:39;;;;;;;5.72;2.30;;;;;;;15.24;80.17;102853.75;4955900;28;20055;-56
2021/09/01 03:17:06;;;;;;;5.43;1.65;;;;;;;15.23;80.04;102866.03;4956333;28;20106;-52
2021/09/01 03:19:34;;;;;;;4.65;1.95;;;;;;;15.25;80.16;102858.16;4955766;28;20035;-52
2021/09/01 03:22:00;;;;;;;5.05;1.98;;;;;;;15.24;80.07;102853.75;4955380;28;20480;-55
2021/09/01 03:24:27;;;;;;;3.22;1.65;;;;;;;15.23;80.13;102857.66;4956246;28;20098;-54
2021/09/01 03:26:54;;;;;;;6.80;1.63;;;;;;;15.23;80.02;102849.28;4955127;28;20045;-51
2021/09/01 03:29:21;;;;;;;9.25;1.98;;;;;;;15.24;80.06;102847.34;4954725;28;20051;-56
2021/09/01 03:31:48;;;;;;;7.38;1.98;;;;;;;15.23;80.22;102843.72;4954996;28;20042;-55
2021/09/01 03:34:15;;;;;;;11.00;3.05;;;;;;;15.21;80.51;102843.22;4955191;28;20057;-54
2021/09/01 03:36:41;;;;;;;13.35;3.25;;;;;;;15.19;80.40;102842.75;4954799;28;20147;-50
2021/09/01 03:39:08;;;;;;;10.48;2.47;;;;;;;15.19;80.21;102851.09;4955128;28;20047;-58
2021/09/01 03:41:36;;;;;;;6.82;1.85;;;;;;;15.21;80.33;102840.44;4955164;28;20050;-54
2021/09/01 03:44:02;;;;;;;4.70;1.67;;;;;;;15.21;80.34;102843.22;4956043;28;20054;-51
2021/09/01 03:46:30;;;;;;;6.88;1.23;;;;;;;15.23;80.26;102845.69;4955872;28;20051;-51
2021/09/01 03:48:56;;;;;;;5.85;1.88;;;;;;;15.22;80.23;102836.47;4938795;28;20042;-50
2021/09/01 03:51:23;;;;;;;7.53;1.92;;;;;;;15.22;80.16;102839.28;4955957;28;20059;-51
2021/09/01 03:53:50;;;;;;;8.05;2.60;;;;;;;15.20;80.21;102840.75;4938997;28;20055;-54
2021/09/01 03:56:16;;;;;;;7.75;2.05;;;;;;;15.19;80.50;102848.31;4958020;28;20516;-51
2021/09/01 03:58:43;;;;;;;6.10;1.88;;;;;;;15.17;80.54;102842.22;4954633;28;20057;-50
2021/09/01 04:01:10;;;;;;;10.00;2.35;;;;;;;15.18;80.38;102843.88;4955576;28;20070;-50
2021/09/01 04:03:37;;;;;;;4.15;1.75;;;;;;;15.18;80.35;102831.88;4955909;28;20101;-58
2021/09/01 04:06:05;;;;;;;6.35;2.05;;;;;;;15.15;80.46;102833.34;4957132;28;20053;-55
2021/09/01 04:08:31;;;;;;;6.75;2.40;;;;;;;15.19;80.40;102833.53;4957000;28;20059;-54
2021/09/01 04:10:58;;;;;;;6.10;2.00;;;;;;;15.19;80.39;102830.75;4954209;28;20051;-57
2021/09/01 04:13:26;;;;;;;3.72;1.13;;;;;;;15.20;80.20;102833.19;4953277;28;20043;-56
2021/09/01 04:15:53;;;;;;;2.92;1.55;;;;;;;15.17;80.39;102830.22;4955502;28;20043;-54
2021/09/01 04:18:20;;;;;;;14.15;4.30;;;;;;;15.18;80.40;102827.13;4955763;28;20070;-52
2021/09/01 04:20:46;;;;;;;4.97;1.63;;;;;;;15.18;80.32;102827.13;4953997;28;20053;-56
2021/09/01 04:23:13;;;;;;;7.47;1.58;;;;;;;15.19;80.25;102827.97;4937760;28;20035;-55
2021/09/01 04:25:40;;;;;;;3.17;1.20;;;;;;;15.18;80.30;102829.91;4956281;28;20062;-52
2021/09/01 04:28:07;;;;;;;5.38;2.17;;;;;;;15.16;80.52;102823.84;4954427;28;20065;-50
2021/09/01 04:30:34;;;;;;;7.80;1.60;;;;;;;15.15;80.18;102825.00;4954840;28;20043;-52
2021/09/01 04:33:00;;;;;;;7.43;2.40;;;;;;;15.16;80.20;102835.00;4955232;28;20063;-55
2021/09/01 04:35:27;;;;;;;5.70;2.05;;;;;;;15.16;80.17;102834.19;4955335;28;20035;-50
2021/09/01 04:37:54;;;;;;;4.25;1.38;;;;;;;15.16;80.21;102826.66;4954730;28;20496;-54
2021/09/01 04:40:21;;;;;;;7.90;2.10;;;;;;;15.15;80.32;102838.94;4954580;28;20050;-54
2021/09/01 04:42:48;;;;;;;5.65;1.10;;;;;;;15.15;80.20;102832.53;4955312;28;21899;-57
2021/09/01 04:45:16;;;;;;;6.28;1.83;;;;;;;15.14;80.26;102828.91;4956413;28;20121;-56
2021/09/01 04:47:43;;;;;;;3.67;1.70;;;;;;;15.15;80.19;102833.34;4954167;28;20055;-52
2021/09/01 04:50:10;;;;;;;6.45;2.20;;;;;;;15.13;80.15;102834.84;4954296;28;20078;-54
2021/09/01 04:52:37;;;;;;;3.83;1.27;;;;;;;15.12;80.15;102834.00;4955719;28;20043;-56
2021/09/01 04:55:05;;;;;;;4.05;1.33;;;;;;;15.10;80.15;102825.16;4955702;28;20042;-58
2021/09/01 04:57:32;;;;;;;7.72;1.60;;;;;;;15.12;80.04;102822.03;4955253;28;20503;-52
2021/09/01 04:59:58;;;;;;;7.43;1.63;;;;;;;15.13;80.08;102821.72;4935884;28;20039;-54
2021/09/01 05:02:25;;;;;;;4.13;1.30;;;;;;;15.13;80.11;102830.09;4954084;28;20307;-52
2021/09/01 05:04:52;;;;;;;6.25;1.42;;;;;;;15.13;80.14;102829.25;4936988;28;20046;-53
2021/09/01 05:07:19;;;;;;;5.20;1.75;;;;;;;15.12;80.19;102828.44;4934437;28;20523;-56
2021/09/01 05:09:46;;;;;;;3.47;1.27;;;;;;;15.08;80.23;102821.88;4942007;28;20069;-55
2021/09/01 05:12:17;;;;;;;5.88;1.77;;;;;;;15.09;80.14;102820.69;4946745;28;20050;-53
2021/09/01 05:14:43;;;;;;;6.70;1.80;;;;;;;15.07;80.11;102820.22;4941536;28;20039;-50
2021/09/01 05:17:10;;;;;;;8.23;3.38;;;;;;;15.04;80.44;102826.44;4940976;28;20066;-52
2021/09/01 05:19:38;;;;;;;3.25;1.65;;;;;;;15.03;80.29;102824.81;4949239;28;20481;-56
2021/09/01 05:22:24;;;;;;;5.05;1.58;;;;;;;15.00;80.44;102833.84;4942295;28;20038;-53
2021/09/01 05:24:57;;;;;;;7.65;1.98;;;;;;;15.00;80.61;102833.00;4939955;28;20053;-55
2021/09/01 05:27:25;;;;;;;2.67;1.48;;;;;;;14.99;80.45;102829.38;4933600;28;20050;-51
2021/09/01 05:29:52;;;;;;;5.13;1.55;;;;;;;14.96;80.55;102832.81;4937374;28;20047;-50
2021/09/01 05:32:25;;;;;;;7.63;2.13;;;;;;;14.91;80.52;102832.97;4942924;28;20750;-53
2021/09/01 05:34:55;;;;;;;6.45;2.20;;;;;;;14.88;80.71;102833.63;4943899;28;20058;-53
2021/09/01 05:37:23;;;;;;;6.00;1.63;;;;;;;14.84;80.86;102838.22;4938787;28;20035;-54
2021/09/01 05:39:53;;;;;;;6.00;1.85;;;;;;;14.79;81.17;102849.50;4940797;28;20092;-54
2021/09/01 05:42:25;;;;;;;6.90;1.88;;;;;;;14.79;81.24;102849.50;4934948;28;20069;-51
2021/09/01 05:44:57;;;;;;;6.40;2.28;;;;;;;14.79;81.27;102852.31;4935492;28;20994;-57
2021/09/01 05:47:25;;;;;;;12.52;3.47;;;;;;;14.78;81.26;102853.44;4943510;28;20136;-61
2021/09/01 05:49:55;;;;;;;7.60;2.30;;;;;;;14.77;81.45;102860.19;4941134;28;22989;-56
2021/09/01 05:52:23;;;;;;;5.35;2.10;;;;;;;14.74;81.26;102855.25;4938178;28;20031;-53
2021/09/01 05:54:51;;;;;;;6.95;2.45;;;;;;;14.72;81.47;102857.50;4938833;28;20051;-61
2021/09/01 05:57:20;;;;;;;6.13;2.10;;;;;;;14.72;81.42;102863.09;4933782;28;20409;-57
2021/09/01 05:59:55;;;;;;;5.78;1.88;;;;;;;14.75;81.35;102862.44;4936922;28;20989;-55
2021/09/01 06:03:01;;;;;;;7.60;2.63;;;;;;;14.75;81.55;102862.44;4936421;28;20042;-51
2021/09/01 06:05:31;;;;;;;6.95;2.50;;;;;;;14.75;81.33;102867.19;4935398;28;20043;-55
2021/09/01 06:08:22;;;;;;;8.13;2.55;;;;;;;14.76;81.39;102864.09;4939454;28;20759;-52
2021/09/01 06:11:11;;;;;;;8.32;2.40;;;;;;;14.80;81.20;102864.28;4938569;28;20121;-57
2021/09/01 06:13:39;;;;;;;8.60;2.60;;;;;;;14.81;81.18;102869.53;4934177;28;20047;-56
2021/09/01 06:16:06;;;;;;;12.18;3.28;;;;;;;14.83;81.37;102870.03;4930721;28;20906;-57
2021/09/01 06:18:33;;;;;;;9.80;2.60;;;;;;;14.85;81.43;102866.94;4932842;28;20571;-55
2021/09/01 06:21:00;;;;;;;14.50;3.50;;;;;;;14.87;81.37;102870.22;4931447;28;20051;-55
2021/09/01 06:23:28;;;;;;;9.55;2.70;;;;;;;14.86;81.25;102869.38;4928584;28;21088;-52
2021/09/01 06:25:56;;;;;;;9.68;3.08;;;;;;;14.86;81.40;102869.38;4932905;28;20059;-55
2021/09/01 06:28:24;;;;;;;8.20;2.70;;;;;;;14.88;81.14;102867.09;4933279;28;20057;-55
2021/09/01 06:30:54;;;;;;;7.10;2.63;;;;;;;14.89;80.98;102870.69;4929459;28;20047;-56
2021/09/01 06:33:21;;;;;;;6.88;3.10;;;;;;;14.90;80.79;102864.81;4931734;28;20152;-57
2021/09/01 06:35:58;;;;;;;7.93;3.03;;;;;;;14.91;80.54;102860.88;4935480;28;20873;-55
2021/09/01 06:38:32;;;;;;;8.77;3.80;;;;;;;14.92;80.35;102865.31;4936311;28;20162;-55
2021/09/01 06:41:00;;;;;;;6.57;2.92;;;;;;;14.96;80.08;102863.50;4936830;28;20186;-56
2021/09/01 06:43:48;;;;;;;8.25;3.28;;;;;;;15.01;80.04;102868.94;4937609;28;20054;-54
2021/09/01 06:46:22;;;;;;;6.70;2.97;;;;;;;15.07;79.72;102867.63;4938049;28;20176;-58
2021/09/01 06:49:04;;;;;;;5.90;2.40;;;;;;;15.09;79.62;102876.50;4933399;28;20043;-57
2021/09/01 06:51:31;;;;;;;7.20;2.03;;;;;;;15.11;79.05;102882.59;4916047;28;20172;-56
2021/09/01 06:54:10;;;;;;;4.68;2.42;;;;;;;15.14;78.51;102884.72;4937392;28;20173;-53
2021/09/01 06:56:50;;;;;;;5.63;2.00;;;;;;;15.18;78.01;102882.94;4930091;28;20816;-60
2021/09/01 06:59:17;;;;;;;5.88;2.53;;;;;;;15.25;77.90;102883.28;4926543;28;20040;-57
2021/09/01 07:01:44;;;;;;;11.77;3.00;;;;;;;15.27;77.47;102880.97;4935367;28;20452;-55
2021/09/01 07:04:22;;;;;;;6.60;2.72;;;;;;;15.33;77.15;102878.06;4925921;28;20050;-57
2021/09/01 07:06:53;;;;;;;7.35;2.40;;;;;;;15.37;76.83;102879.03;4912539;28;20043;-52
2021/09/01 07:09:29;;;;;;;5.30;2.85;;;;;;;15.43;76.70;102878.56;4920349;28;20066;-59
2021/09/01 07:12:00;;;;;;;6.55;2.92;;;;;;;15.51;76.58;102885.34;4925737;28;20046;-54
2021/09/01 07:14:31;;;;;;;8.10;2.85;;;;;;;15.58;76.36;102888.44;4931031;28;20059;-57
2021/09/01 07:17:12;;;;;;;5.60;2.90;;;;;;;15.67;76.05;102883.69;4930603;28;20981;-55
2021/09/01 07:19:51;;;;;;;7.97;3.60;;;;;;;15.74;76.05;102886.81;4930427;28;20054;-59
2021/09/01 07:22:27;;;;;;;7.38;3.05;;;;;;;15.83;75.84;102891.25;4931857;28;20879;-51
2021/09/01 07:25:06;;;;;;;7.78;3.17;;;;;;;15.87;75.71;102882.22;4916988;28;20175;-47
2021/09/01 07:27:45;;;;;;;7.53;3.38;;;;;;;15.79;75.36;102892.22;4928666;28;20831;-51
2021/09/01 07:30:25;;;;;;;6.47;2.97;;;;;;;15.69;75.11;102898.16;4926442;28;20051;-51
2021/09/01 07:33:05;;;;;;;8.48;3.58;;;;;;;15.66;75.15;102890.44;4927662;28;20065;-54
2021/09/01 07:35:45;;;;;;;6.70;3.20;;;;;;;15.70;75.19;102892.22;4928415;28;20197;-56
2021/09/01 07:38:26;;;;;;;8.18;3.75;;;;;;;15.75;74.91;102886.47;4925689;28;20150;-55
2021/09/01 07:41:01;;;;;;;7.60;3.78;;;;;;;15.82;74.83;102897.16;4926066;28;20055;-53
2021/09/01 07:43:38;;;;;;;5.50;3.38;;;;;;;15.87;74.72;102885.81;4935028;23;22066;-85
2021/09/01 07:46:05;;;;;;;8.15;2.92;;;;;;;15.94;74.58;102900.13;4903327;28;20187;-89
2021/09/01 07:48:35;;;;;;;6.38;2.70;;;;;;;15.98;74.10;102905.88;4919475;28;20039;-87
2021/09/01 07:51:05;;;;;;;9.85;3.00;;;;;;;16.00;73.96;102904.38;4925599;28;20055;-86
2021/09/01 07:53:34;;;;;;;4.47;2.63;;;;;;;16.00;73.28;102895.19;4939921;28;20054;-84
2021/09/01 07:56:01;;;;;;;8.88;3.10;;;;;;;16.00;72.92;102906.34;4962163;28;20503;-83
2021/09/01 07:58:28;;;;;;;9.55;3.60;;;;;;;16.02;72.96;102893.69;4934723;28;20059;-83
2021/09/01 08:00:55;;;;;;;4.95;2.70;;;;;;;16.04;72.68;102902.59;4923838;28;20258;-83
2021/09/01 08:03:22;;;;;;;7.15;2.40;;;;;;;16.10;72.27;102904.03;4920645;28;20055;-81
2021/09/01 08:05:49;;;;;;;6.43;2.80;;;;;;;16.11;72.26;102900.13;4888154;29;20047;-82
2021/09/01 08:08:16;;;;;;;7.32;2.33;;;;;;;16.14;71.54;102912.59;4886821;29;20048;-83
2021/09/01 08:10:42;;;;;;;4.93;2.17;;;;;;;16.18;71.18;102894.00;4890167;29;20068;-83
2021/09/01 08:13:09;;;;;;;6.47;2.58;;;;;;;16.26;70.73;102910.75;4944201;28;20039;-84
2021/09/01 08:15:36;;;;;;;4.32;2.30;;;;;;;16.30;69.57;102899.75;4946168;29;20055;-81
2021/09/01 08:18:03;;;;;;;4.50;2.20;;;;;;;16.38;69.61;102912.91;4928390;29;20708;-83
2021/09/01 08:20:29;;;;;;;5.20;2.10;;;;;;;16.41;68.28;102898.25;4944753;29;20039;-83
2021/09/01 08:22:56;;;;;;;7.22;3.58;;;;;;;16.50;69.06;102910.22;4943328;28;20162;-83
2021/09/01 08:25:23;;;;;;;6.35;2.70;;;;;;;16.58;69.57;102905.78;4944430;29;20045;-83
2021/09/01 08:27:49;;;;;;;7.00;2.67;;;;;;;16.72;70.04;102909.19;4946334;29;20049;-83
2021/09/01 08:30:16;;;;;;;6.18;2.22;;;;;;;16.87;69.74;102912.25;4929189;29;20047;-82
2021/09/01 08:32:44;;;;;;;3.88;2.38;;;;;;;17.05;69.78;102907.41;4944934;29;20134;-83
2021/09/01 08:35:12;;;;;;;4.38;2.65;;;;;;;17.13;68.76;102917.72;4935525;29;20888;-81
2021/09/01 08:37:39;;;;;;;6.35;2.80;;;;;;;17.18;66.45;102914.78;4943561;28;20051;-80
2021/09/01 08:40:07;;;;;;;4.35;2.00;;;;;;;17.24;65.59;102924.59;4946128;29;20485;-81
2021/09/01 08:42:36;;;;;;;3.42;2.05;;;;;;;17.26;64.68;102929.88;4945005;29;20047;-81
2021/09/01 08:45:04;;;;;;;3.33;2.83;;;;;;;17.24;63.61;102924.59;4912816;29;20917;-80
2021/09/01 08:47:33;;;;;;;3.72;2.10;;;;;;;17.16;62.77;102925.47;4945723;28;20478;-80
2021/09/01 08:50:05;;;;;;;6.28;2.30;;;;;;;17.10;62.34;102924.03;4926451;29;20054;-82
2021/09/01 08:52:32;;;;;;;4.47;2.35;;;;;;;17.05;62.73;102925.03;4946680;29;20045;-80
2021/09/01 08:54:58;;;;;;;4.68;2.40;;;;;;;16.99;62.05;102922.75;4945484;29;20043;-83
2021/09/01 08:57:26;;;;;;;3.53;2.47;;;;;;;16.95;62.07;102919.81;4944533;29;20467;-80
2021/09/01 08:59:52;;;;;;;6.90;4.28;;;;;;;16.97;61.83;102927.88;4944448;28;20142;-84
2021/09/01 09:02:29;;;;;;;6.65;3.15;;;;;;;16.99;61.13;102926.38;4944948;29;20043;-80
2021/09/01 09:04:57;;;;;;;4.85;2.20;;;;;;;17.09;62.39;102927.97;4927322;28;20046;-85
2021/09/01 09:07:29;;;;;;;5.22;3.25;;;;;;;17.20;62.15;102932.03;4945150;28;20134;-82
2021/09/01 09:10:00;;;;;;;3.78;2.22;;;;;;;17.33;61.73;102933.78;4943990;29;20047;-86
2021/09/01 09:12:32;;;;;;;3.30;2.17;;;;;;;17.35;61.30;102931.47;4938759;28;20040;-84
2021/09/01 09:14:59;;;;;;;3.22;2.20;;;;;;;17.31;61.06;102930.50;4927321;29;20525;-87
2021/09/01 09:17:34;;;;;;;5.60;2.22;;;;;;;17.28;60.12;102928.38;4944089;29;20483;-87
2021/09/01 09:20:06;;;;;;;4.57;2.50;;;;;;;17.28;60.79;102928.38;4945890;29;20050;-89
2021/09/01 09:22:37;;;;;;;6.43;2.58;;;;;;;17.27;60.84;102926.72;4943351;28;20122;-86
2021/09/01 09:25:18;;;;;;;4.57;2.75;;;;;;;17.26;60.73;102924.28;4944487;29;20039;-85
2021/09/01 09:27:58;;;;;;;5.88;2.50;;;;;;;17.20;60.83;102920.84;4945339;29;20123;-87
2021/09/01 09:30:39;;;;;;;6.38;3.10;;;;;;;17.17;61.23;102927.13;4945547;29;20043;-87
2021/09/01 09:33:12;;;;;;;5.47;2.90;;;;;;;17.07;61.84;102926.69;4943728;28;20049;-85
2021/09/01 09:35:55;;;;;;;3.90;2.40;;;;;;;17.00;62.22;102924.38;4943166;29;20044;-85
2021/09/01 09:38:29;;;;;;;4.70;3.22;;;;;;;16.94;62.77;102922.94;4945912;29;20047;-87
2021/09/01 09:40:57;;;;;;;7.47;3.15;;;;;;;16.97;63.16;102916.69;4928500;29;20129;-85
2021/09/01 09:43:26;;;;;;;8.25;3.53;;;;;;;17.10;63.68;102914.81;4942918;28;20055;-86
2021/09/01 09:46:07;;;;;;;6.28;2.72;;;;;;;17.24;63.59;102924.59;4946297;28;20082;-84
2021/09/01 09:48:37;;;;;;;5.00;2.67;;;;;;;17.48;63.55;102921.97;4947004;29;20051;-87
2021/09/01 09:51:05;;;;;;;7.65;3.17;;;;;;;17.60;63.27;102915.69;4947031;29;20050;-86
2021/09/01 09:53:37;;;;;;;6.22;3.00;;;;;;;17.69;62.94;102912.78;4946949;29;20519;-86
2021/09/01 09:56:07;;;;;;;5.43;2.65;;;;;;;17.75;62.44;102919.84;4944423;29;20111;-85
2021/09/01 09:58:40;;;;;;;4.45;2.45;;;;;;;17.88;62.48;102924.34;4927779;29;20429;-88
2021/09/01 10:01:08;;;;;;;5.53;2.08;;;;;;;18.03;61.83;102920.94;4911909;29;20055;-86
2021/09/01 10:03:36;;;;;;;4.93;2.63;;;;;;;18.10;61.47;102915.59;4926809;29;20047;-86
2021/09/01 10:06:10;;;;;;;5.68;2.63;;;;;;;18.09;60.93;102919.56;4942855;28;20142;-87
2021/09/01 10:08:37;;;;;;;4.80;2.70;;;;;;;18.02;61.11;102914.50;4945651;29;20067;-87
2021/09/01 10:11:08;;;;;;;5.00;2.92;;;;;;;17.96;60.84;102912.25;4946369;29;20130;-87
2021/09/01 10:13:41;;;;;;;5.22;2.67;;;;;;;17.86;60.67;102912.69;4945142;29;20055;-87
2021/09/01 10:16:20;;;;;;;5.60;2.50;;;;;;;17.74;59.61;102918.22;4931672;29;20051;-86
2021/09/01 10:19:00;;;;;;;4.57;2.65;;;;;;;17.62;60.45;102910.56;4948799;29;20043;-87
2021/09/01 10:21:31;;;;;;;6.78;2.58;;;;;;;17.48;59.74;102910.78;4948919;29;20138;-89
2021/09/01 10:24:16;;;;;;;4.30;2.65;;;;;;;17.36;59.51;102899.50;4948904;29;20054;-86
2021/09/01 10:27:00;;;;;;;4.55;2.85;;;;;;;17.29;59.65;102895.59;4949904;28;20043;-86
2021/09/01 10:29:44;;;;;;;5.60;2.25;;;;;;;17.25;59.59;102903.84;4946254;29;20078;-88
2021/09/01 10:32:24;;;;;;;5.60;2.38;;;;;;;17.28;60.42;102900.38;4933075;29;21051;-87
2021/09/01 10:35:15;;;;;;;3.67;2.58;;;;;;;17.24;59.07;102905.00;4930735;29;20779;-84
2021/09/01 10:37:53;;;;;;;4.97;2.77;;;;;;;17.18;59.70;102909.19;4946850;29;20055;-84
2021/09/01 10:40:20;;;;;;;4.78;2.45;;;;;;;17.17;60.29;102915.09;4929904;29;20047;-86
2021/09/01 10:42:53;;;;;;;4.93;2.50;;;;;;;17.08;60.63;102912.31;4949790;29;20066;-86
2021/09/01 10:45:22;;;;;;;3.38;2.40;;;;;;;16.96;61.33;102915.03;4931188;29;20169;-87
2021/09/01 10:47:52;;;;;;;6.18;2.85;;;;;;;16.87;61.79;102917.03;4947205;28;20493;-86
2021/09/01 10:50:25;;;;;;;5.88;2.85;;;;;;;16.85;62.63;102913.75;4928337;29;20051;-84
2021/09/01 10:52:58;;;;;;;4.70;2.67;;;;;;;16.85;62.64;102919.34;4931777;29;20161;-83
2021/09/01 10:55:26;;;;;;;4.63;2.43;;;;;;;16.85;62.92;102908.16;4914765;29;20047;-85
2021/09/01 10:58:34;;;;;;;9.07;3.13;;;;;;;16.87;63.77;102917.03;4914695;29;20087;-85
2021/09/01 11:01:10;;;;;;;7.03;3.20;;;;;;;16.85;63.65;102919.34;4868216;29;20084;-85
2021/09/01 11:03:40;;;;;;;6.35;3.50;;;;;;;16.90;63.78;102913.56;4941314;29;20055;-85
2021/09/01 11:06:15;;;;;;;3.95;3.03;;;;;;;17.01;64.10;102921.28;4945459;29;20071;-87
2021/09/01 11:08:55;;;;;;;3.72;2.10;;;;;;;17.04;63.69;102922.56;4946412;28;20130;-86
2021/09/01 11:11:21;;;;;;;5.07;2.67;;;;;;;17.13;63.67;102925.34;4929730;29;20047;-87
2021/09/01 11:13:48;;;;;;;5.20;3.03;;;;;;;17.15;63.67;102929.44;4947632;29;20046;-86
2021/09/01 11:16:20;;;;;;;4.82;2.90;;;;;;;17.14;63.63;102929.75;4944986;29;20039;-85
2021/09/01 11:19:05;;;;;;;5.47;2.92;;;;;;;17.12;63.86;102930.09;4928065;28;20051;-86
2021/09/01 11:21:44;;;;;;;5.85;3.10;;;;;;;17.17;64.18;102927.13;4947584;29;20126;-85
2021/09/01 11:24:14;;;;;;;5.15;2.90;;;;;;;17.28;64.00;102936.78;4929992;29;20134;-87
2021/09/01 11:26:41;;;;;;;7.15;2.65;;;;;;;17.33;63.90;102935.75;4928209;29;20047;-86
2021/09/01 11:29:10;;;;;;;4.28;2.78;;;;;;;17.39;64.25;102932.44;4946650;29;20058;-86
2021/09/01 11:31:44;;;;;;;4.97;2.53;;;;;;;17.49;64.02;102923.63;4948062;29;20114;-87
2021/09/01 11:34:14;;;;;;;5.85;2.92;;;;;;;17.54;63.63;102920.66;4945843;29;20051;-87
2021/09/01 11:36:43;;;;;;;8.50;3.33;;;;;;;17.63;63.72;102918.59;4945731;28;20047;-87
2021/09/01 11:39:11;;;;;;;3.75;3.00;;;;;;;17.82;63.98;102920.13;4942468;28;20043;-86